sensor_id;sensor_type;location;lat;lon;timestamp;P1;durP1;ratioP1;P2;durP2;ratioP2
55362;SDS011;41244;49.242;9.060;2023-12-20T00:01:27;10.82;;;8.38;;
55362;SDS011;41244;49.242;9.060;2023-12-20T00:03:52;9.60;;;8.45;;
55362;SDS011;41244;49.242;9.060;2023-12-20T00:06:18;10.05;;;8.35;;
55362;SDS011;41244;49.242;9.060;2023-12-20T00:08:44;10.80;;;8.20;;
55362;SDS011;41244;49.242;9.060;2023-12-20T00:11:10;11.93;;;8.75;;
55362;SDS011;41244;49.242;9.060;2023-12-20T00:13:35;10.38;;;8.43;;
55362;SDS011;41244;49.242;9.060;2023-12-20T00:16:01;11.90;;;8.23;;
55362;SDS011;41244;49.242;9.060;2023-12-20T00:18:27;10.68;;;8.63;;
55362;SDS011;41244;49.242;9.060;2023-12-20T00:20:53;11.68;;;8.60;;
55362;SDS011;41244;49.242;9.060;2023-12-20T00:23:19;13.20;;;9.02;;
55362;SDS011;41244;49.242;9.060;2023-12-20T00:25:44;10.10;;;8.30;;
55362;SDS011;41244;49.242;9.060;2023-12-20T00:28:10;10.95;;;8.68;;
55362;SDS011;41244;49.242;9.060;2023-12-20T00:30:36;11.65;;;8.38;;
55362;SDS011;41244;49.242;9.060;2023-12-20T00:33:02;12.57;;;8.82;;
55362;SDS011;41244;49.242;9.060;2023-12-20T00:35:28;11.20;;;9.38;;
55362;SDS011;41244;49.242;9.060;2023-12-20T00:37:53;12.85;;;9.02;;
55362;SDS011;41244;49.242;9.060;2023-12-20T00:40:20;11.02;;;8.15;;
55362;SDS011;41244;49.242;9.060;2023-12-20T00:42:46;8.88;;;7.70;;
55362;SDS011;41244;49.242;9.060;2023-12-20T00:45:12;10.38;;;7.10;;
55362;SDS011;41244;49.242;9.060;2023-12-20T00:47:38;11.40;;;9.27;;
55362;SDS011;41244;49.242;9.060;2023-12-20T00:50:04;13.30;;;9.10;;
55362;SDS011;41244;49.242;9.060;2023-12-20T00:52:30;13.20;;;9.57;;
55362;SDS011;41244;49.242;9.060;2023-12-20T00:54:56;13.77;;;8.88;;
55362;SDS011;41244;49.242;9.060;2023-12-20T00:57:21;10.85;;;8.25;;
55362;SDS011;41244;49.242;9.060;2023-12-20T00:59:47;10.43;;;8.50;;
55362;SDS011;41244;49.242;9.060;2023-12-20T01:02:13;12.32;;;8.68;;
55362;SDS011;41244;49.242;9.060;2023-12-20T01:04:39;10.55;;;8.50;;
55362;SDS011;41244;49.242;9.060;2023-12-20T01:07:04;9.43;;;8.35;;
55362;SDS011;41244;49.242;9.060;2023-12-20T01:09:30;9.38;;;8.38;;
55362;SDS011;41244;49.242;9.060;2023-12-20T01:11:56;11.55;;;8.77;;
55362;SDS011;41244;49.242;9.060;2023-12-20T01:14:22;10.95;;;8.00;;
55362;SDS011;41244;49.242;9.060;2023-12-20T01:16:47;9.50;;;8.45;;
55362;SDS011;41244;49.242;9.060;2023-12-20T01:19:13;10.52;;;7.85;;
55362;SDS011;41244;49.242;9.060;2023-12-20T01:21:39;8.88;;;7.75;;
55362;SDS011;41244;49.242;9.060;2023-12-20T01:24:05;9.32;;;7.07;;
55362;SDS011;41244;49.242;9.060;2023-12-20T01:26:31;9.10;;;8.10;;
55362;SDS011;41244;49.242;9.060;2023-12-20T01:28:57;10.88;;;8.10;;
55362;SDS011;41244;49.242;9.060;2023-12-20T01:31:22;8.30;;;6.80;;
55362;SDS011;41244;49.242;9.060;2023-12-20T01:33:48;7.25;;;6.20;;
55362;SDS011;41244;49.242;9.060;2023-12-20T01:36:14;7.03;;;6.22;;
55362;SDS011;41244;49.242;9.060;2023-12-20T01:38:40;8.68;;;6.28;;
55362;SDS011;41244;49.242;9.060;2023-12-20T01:41:05;7.28;;;6.38;;
55362;SDS011;41244;49.242;9.060;2023-12-20T01:43:31;6.75;;;5.90;;
55362;SDS011;41244;49.242;9.060;2023-12-20T01:45:57;6.68;;;5.45;;
55362;SDS011;41244;49.242;9.060;2023-12-20T01:48:23;9.32;;;5.63;;
55362;SDS011;41244;49.242;9.060;2023-12-20T01:50:52;5.30;;;4.78;;
55362;SDS011;41244;49.242;9.060;2023-12-20T01:53:19;6.60;;;5.82;;
55362;SDS011;41244;49.242;9.060;2023-12-20T01:55:46;5.25;;;4.75;;
55362;SDS011;41244;49.242;9.060;2023-12-20T01:58:13;5.38;;;4.85;;
55362;SDS011;41244;49.242;9.060;2023-12-20T02:00:39;6.85;;;4.72;;
55362;SDS011;41244;49.242;9.060;2023-12-20T02:03:05;7.93;;;5.50;;
55362;SDS011;41244;49.242;9.060;2023-12-20T02:05:31;6.20;;;5.25;;
55362;SDS011;41244;49.242;9.060;2023-12-20T02:07:57;4.90;;;4.32;;
55362;SDS011;41244;49.242;9.060;2023-12-20T02:10:23;6.68;;;5.25;;
55362;SDS011;41244;49.242;9.060;2023-12-20T02:12:49;5.18;;;4.63;;
55362;SDS011;41244;49.242;9.060;2023-12-20T02:15:15;4.53;;;4.07;;
55362;SDS011;41244;49.242;9.060;2023-12-20T02:17:41;5.53;;;4.32;;
55362;SDS011;41244;49.242;9.060;2023-12-20T02:20:07;6.25;;;4.47;;
55362;SDS011;41244;49.242;9.060;2023-12-20T02:22:32;4.47;;;4.00;;
55362;SDS011;41244;49.242;9.060;2023-12-20T02:24:58;4.82;;;4.00;;
55362;SDS011;41244;49.242;9.060;2023-12-20T02:27:24;4.63;;;4.10;;
55362;SDS011;41244;49.242;9.060;2023-12-20T02:29:50;4.47;;;4.07;;
55362;SDS011;41244;49.242;9.060;2023-12-20T02:32:16;4.03;;;3.63;;
55362;SDS011;41244;49.242;9.060;2023-12-20T02:34:42;4.35;;;3.90;;
55362;SDS011;41244;49.242;9.060;2023-12-20T02:37:08;4.15;;;3.83;;
55362;SDS011;41244;49.242;9.060;2023-12-20T02:39:34;4.60;;;3.72;;
55362;SDS011;41244;49.242;9.060;2023-12-20T02:42:00;4.40;;;3.92;;
55362;SDS011;41244;49.242;9.060;2023-12-20T02:44:25;4.10;;;3.60;;
55362;SDS011;41244;49.242;9.060;2023-12-20T02:46:51;4.75;;;4.10;;
55362;SDS011;41244;49.242;9.060;2023-12-20T02:49:17;5.75;;;3.95;;
55362;SDS011;41244;49.242;9.060;2023-12-20T02:51:43;6.05;;;4.50;;
55362;SDS011;41244;49.242;9.060;2023-12-20T02:54:09;4.00;;;3.60;;
55362;SDS011;41244;49.242;9.060;2023-12-20T02:56:34;5.78;;;4.55;;
55362;SDS011;41244;49.242;9.060;2023-12-20T02:59:00;6.70;;;4.50;;
55362;SDS011;41244;49.242;9.060;2023-12-20T03:01:27;6.40;;;4.75;;
55362;SDS011;41244;49.242;9.060;2023-12-20T03:03:53;4.82;;;4.13;;
55362;SDS011;41244;49.242;9.060;2023-12-20T03:06:19;5.10;;;3.72;;
55362;SDS011;41244;49.242;9.060;2023-12-20T03:08:45;6.90;;;4.50;;
55362;SDS011;41244;49.242;9.060;2023-12-20T03:11:11;5.75;;;4.95;;
55362;SDS011;41244;49.242;9.060;2023-12-20T03:13:36;4.85;;;4.30;;
55362;SDS011;41244;49.242;9.060;2023-12-20T03:16:11;6.50;;;4.60;;
55362;SDS011;41244;49.242;9.060;2023-12-20T03:18:38;5.43;;;4.35;;
55362;SDS011;41244;49.242;9.060;2023-12-20T03:21:04;4.30;;;3.90;;
55362;SDS011;41244;49.242;9.060;2023-12-20T03:23:30;5.65;;;4.53;;
55362;SDS011;41244;49.242;9.060;2023-12-20T03:25:57;5.53;;;4.47;;
55362;SDS011;41244;49.242;9.060;2023-12-20T03:28:23;7.07;;;4.88;;
55362;SDS011;41244;49.242;9.060;2023-12-20T03:30:49;4.40;;;4.00;;
55362;SDS011;41244;49.242;9.060;2023-12-20T03:33:15;6.15;;;4.70;;
55362;SDS011;41244;49.242;9.060;2023-12-20T03:35:41;4.50;;;4.10;;
55362;SDS011;41244;49.242;9.060;2023-12-20T03:38:07;5.32;;;4.00;;
55362;SDS011;41244;49.242;9.060;2023-12-20T03:40:33;4.85;;;4.38;;
55362;SDS011;41244;49.242;9.060;2023-12-20T03:42:58;4.85;;;4.35;;
55362;SDS011;41244;49.242;9.060;2023-12-20T03:45:24;14.88;;;10.52;;
55362;SDS011;41244;49.242;9.060;2023-12-20T03:47:50;11.52;;;9.25;;
55362;SDS011;41244;49.242;9.060;2023-12-20T03:50:20;6.47;;;4.80;;
55362;SDS011;41244;49.242;9.060;2023-12-20T03:52:49;5.35;;;4.25;;
55362;SDS011;41244;49.242;9.060;2023-12-20T03:55:14;4.82;;;3.92;;
55362;SDS011;41244;49.242;9.060;2023-12-20T03:57:40;5.20;;;4.40;;
55362;SDS011;41244;49.242;9.060;2023-12-20T04:00:09;4.75;;;4.22;;
55362;SDS011;41244;49.242;9.060;2023-12-20T04:02:36;4.93;;;4.53;;
55362;SDS011;41244;49.242;9.060;2023-12-20T04:05:03;5.03;;;4.50;;
55362;SDS011;41244;49.242;9.060;2023-12-20T04:07:29;4.80;;;4.30;;
55362;SDS011;41244;49.242;9.060;2023-12-20T04:09:55;4.95;;;3.83;;
55362;SDS011;41244;49.242;9.060;2023-12-20T04:12:21;4.97;;;4.47;;
55362;SDS011;41244;49.242;9.060;2023-12-20T04:14:47;4.18;;;3.78;;
55362;SDS011;41244;49.242;9.060;2023-12-20T04:17:13;4.82;;;4.30;;
55362;SDS011;41244;49.242;9.060;2023-12-20T04:19:40;5.03;;;4.47;;
55362;SDS011;41244;49.242;9.060;2023-12-20T04:22:09;5.38;;;4.60;;
55362;SDS011;41244;49.242;9.060;2023-12-20T04:24:34;5.82;;;4.43;;
55362;SDS011;41244;49.242;9.060;2023-12-20T04:27:01;5.38;;;4.78;;
55362;SDS011;41244;49.242;9.060;2023-12-20T04:29:27;5.10;;;4.60;;
55362;SDS011;41244;49.242;9.060;2023-12-20T04:31:52;4.88;;;4.40;;
55362;SDS011;41244;49.242;9.060;2023-12-20T04:34:18;6.43;;;5.10;;
55362;SDS011;41244;49.242;9.060;2023-12-20T04:36:44;5.15;;;4.65;;
55362;SDS011;41244;49.242;9.060;2023-12-20T04:39:11;5.28;;;4.78;;
55362;SDS011;41244;49.242;9.060;2023-12-20T04:41:38;5.38;;;4.88;;
55362;SDS011;41244;49.242;9.060;2023-12-20T04:44:04;5.90;;;5.25;;
55362;SDS011;41244;49.242;9.060;2023-12-20T04:46:31;8.40;;;6.00;;
55362;SDS011;41244;49.242;9.060;2023-12-20T04:48:57;6.43;;;5.30;;
55362;SDS011;41244;49.242;9.060;2023-12-20T04:51:23;6.18;;;5.30;;
55362;SDS011;41244;49.242;9.060;2023-12-20T04:53:48;5.60;;;5.00;;
55362;SDS011;41244;49.242;9.060;2023-12-20T04:56:14;5.57;;;4.60;;
55362;SDS011;41244;49.242;9.060;2023-12-20T04:58:40;5.70;;;5.10;;
55362;SDS011;41244;49.242;9.060;2023-12-20T05:01:08;5.30;;;4.75;;
55362;SDS011;41244;49.242;9.060;2023-12-20T05:03:34;7.38;;;6.68;;
55362;SDS011;41244;49.242;9.060;2023-12-20T05:06:00;5.47;;;4.97;;
55362;SDS011;41244;49.242;9.060;2023-12-20T05:08:26;7.03;;;6.05;;
55362;SDS011;41244;49.242;9.060;2023-12-20T05:10:53;8.88;;;8.07;;
55362;SDS011;41244;49.242;9.060;2023-12-20T05:13:19;8.90;;;7.43;;
55362;SDS011;41244;49.242;9.060;2023-12-20T05:15:45;14.05;;;11.27;;
55362;SDS011;41244;49.242;9.060;2023-12-20T05:18:11;10.18;;;8.15;;
55362;SDS011;41244;49.242;9.060;2023-12-20T05:20:37;6.30;;;5.68;;
55362;SDS011;41244;49.242;9.060;2023-12-20T05:23:03;6.32;;;5.65;;
55362;SDS011;41244;49.242;9.060;2023-12-20T05:25:29;6.88;;;6.18;;
55362;SDS011;41244;49.242;9.060;2023-12-20T05:27:55;6.25;;;5.65;;
55362;SDS011;41244;49.242;9.060;2023-12-20T05:30:21;6.40;;;5.80;;
55362;SDS011;41244;49.242;9.060;2023-12-20T05:32:47;6.97;;;6.25;;
55362;SDS011;41244;49.242;9.060;2023-12-20T05:35:12;7.53;;;6.78;;
55362;SDS011;41244;49.242;9.060;2023-12-20T05:37:38;7.28;;;6.57;;
55362;SDS011;41244;49.242;9.060;2023-12-20T05:40:04;6.35;;;5.50;;
55362;SDS011;41244;49.242;9.060;2023-12-20T05:42:31;9.13;;;8.23;;
55362;SDS011;41244;49.242;9.060;2023-12-20T05:44:56;6.38;;;5.78;;
55362;SDS011;41244;49.242;9.060;2023-12-20T05:47:22;6.53;;;5.93;;
55362;SDS011;41244;49.242;9.060;2023-12-20T05:49:48;7.85;;;6.82;;
55362;SDS011;41244;49.242;9.060;2023-12-20T05:52:15;7.82;;;7.13;;
55362;SDS011;41244;49.242;9.060;2023-12-20T05:54:40;6.18;;;5.53;;
55362;SDS011;41244;49.242;9.060;2023-12-20T05:57:06;6.50;;;5.90;;
55362;SDS011;41244;49.242;9.060;2023-12-20T05:59:32;5.57;;;4.95;;
55362;SDS011;41244;49.242;9.060;2023-12-20T06:01:58;6.00;;;5.40;;
55362;SDS011;41244;49.242;9.060;2023-12-20T06:04:23;5.82;;;5.22;;
55362;SDS011;41244;49.242;9.060;2023-12-20T06:06:49;6.18;;;5.45;;
55362;SDS011;41244;49.242;9.060;2023-12-20T06:09:15;7.05;;;5.72;;
55362;SDS011;41244;49.242;9.060;2023-12-20T06:11:41;6.18;;;5.57;;
55362;SDS011;41244;49.242;9.060;2023-12-20T06:14:06;5.43;;;4.93;;
55362;SDS011;41244;49.242;9.060;2023-12-20T06:16:32;6.30;;;5.32;;
55362;SDS011;41244;49.242;9.060;2023-12-20T06:18:58;8.63;;;6.85;;
55362;SDS011;41244;49.242;9.060;2023-12-20T06:21:23;6.63;;;5.93;;
55362;SDS011;41244;49.242;9.060;2023-12-20T06:23:49;8.38;;;6.80;;
55362;SDS011;41244;49.242;9.060;2023-12-20T06:26:15;10.02;;;8.85;;
55362;SDS011;41244;49.242;9.060;2023-12-20T06:28:41;12.43;;;11.02;;
55362;SDS011;41244;49.242;9.060;2023-12-20T06:31:06;13.43;;;10.20;;
55362;SDS011;41244;49.242;9.060;2023-12-20T06:33:32;9.05;;;8.05;;
55362;SDS011;41244;49.242;9.060;2023-12-20T06:35:58;8.80;;;7.20;;
55362;SDS011;41244;49.242;9.060;2023-12-20T06:38:24;7.55;;;6.72;;
55362;SDS011;41244;49.242;9.060;2023-12-20T06:40:49;8.20;;;7.00;;
55362;SDS011;41244;49.242;9.060;2023-12-20T06:43:15;8.95;;;7.78;;
55362;SDS011;41244;49.242;9.060;2023-12-20T06:45:41;7.68;;;6.55;;
55362;SDS011;41244;49.242;9.060;2023-12-20T06:48:07;7.00;;;6.30;;
55362;SDS011;41244;49.242;9.060;2023-12-20T06:50:33;6.93;;;6.22;;
55362;SDS011;41244;49.242;9.060;2023-12-20T06:52:58;9.52;;;6.93;;
55362;SDS011;41244;49.242;9.060;2023-12-20T06:55:24;11.57;;;9.18;;
55362;SDS011;41244;49.242;9.060;2023-12-20T06:57:50;7.30;;;6.35;;
55362;SDS011;41244;49.242;9.060;2023-12-20T07:00:16;6.75;;;6.15;;
55362;SDS011;41244;49.242;9.060;2023-12-20T07:02:43;7.95;;;7.15;;
55362;SDS011;41244;49.242;9.060;2023-12-20T07:05:09;7.68;;;6.82;;
55362;SDS011;41244;49.242;9.060;2023-12-20T07:07:34;8.57;;;7.43;;
55362;SDS011;41244;49.242;9.060;2023-12-20T07:10:00;6.95;;;6.10;;
55362;SDS011;41244;49.242;9.060;2023-12-20T07:12:26;6.65;;;5.95;;
55362;SDS011;41244;49.242;9.060;2023-12-20T07:14:52;9.75;;;6.90;;
55362;SDS011;41244;49.242;9.060;2023-12-20T07:17:17;8.80;;;7.20;;
55362;SDS011;41244;49.242;9.060;2023-12-20T07:19:43;6.80;;;5.85;;
55362;SDS011;41244;49.242;9.060;2023-12-20T07:22:09;7.18;;;6.35;;
55362;SDS011;41244;49.242;9.060;2023-12-20T07:24:34;9.82;;;6.45;;
55362;SDS011;41244;49.242;9.060;2023-12-20T07:27:00;7.15;;;6.03;;
55362;SDS011;41244;49.242;9.060;2023-12-20T07:29:26;7.35;;;5.93;;
55362;SDS011;41244;49.242;9.060;2023-12-20T07:31:52;8.07;;;6.25;;
55362;SDS011;41244;49.242;9.060;2023-12-20T07:34:19;10.35;;;6.43;;
55362;SDS011;41244;49.242;9.060;2023-12-20T07:36:47;7.10;;;6.32;;
55362;SDS011;41244;49.242;9.060;2023-12-20T07:39:13;14.13;;;11.30;;
55362;SDS011;41244;49.242;9.060;2023-12-20T07:41:39;7.55;;;6.70;;
55362;SDS011;41244;49.242;9.060;2023-12-20T07:44:06;10.88;;;7.63;;
55362;SDS011;41244;49.242;9.060;2023-12-20T07:46:32;9.43;;;6.70;;
55362;SDS011;41244;49.242;9.060;2023-12-20T07:48:58;7.18;;;5.75;;
55362;SDS011;41244;49.242;9.060;2023-12-20T07:51:24;12.90;;;7.00;;
55362;SDS011;41244;49.242;9.060;2023-12-20T07:53:49;9.07;;;6.35;;
55362;SDS011;41244;49.242;9.060;2023-12-20T07:56:17;7.47;;;5.60;;
55362;SDS011;41244;49.242;9.060;2023-12-20T07:58:44;7.00;;;5.45;;
55362;SDS011;41244;49.242;9.060;2023-12-20T08:01:11;9.07;;;6.00;;
55362;SDS011;41244;49.242;9.060;2023-12-20T08:03:37;7.43;;;5.95;;
55362;SDS011;41244;49.242;9.060;2023-12-20T08:06:03;7.60;;;6.55;;
55362;SDS011;41244;49.242;9.060;2023-12-20T08:08:29;5.65;;;5.13;;
55362;SDS011;41244;49.242;9.060;2023-12-20T08:10:55;7.90;;;6.90;;
55362;SDS011;41244;49.242;9.060;2023-12-20T08:13:24;7.97;;;5.93;;
55362;SDS011;41244;49.242;9.060;2023-12-20T08:15:51;7.38;;;5.80;;
55362;SDS011;41244;49.242;9.060;2023-12-20T08:18:17;45.85;;;9.88;;
55362;SDS011;41244;49.242;9.060;2023-12-20T08:20:43;15.02;;;8.10;;
55362;SDS011;41244;49.242;9.060;2023-12-20T08:23:09;82.03;;;16.88;;
55362;SDS011;41244;49.242;9.060;2023-12-20T08:25:35;14.52;;;7.25;;
55362;SDS011;41244;49.242;9.060;2023-12-20T08:28:02;9.27;;;7.00;;
55362;SDS011;41244;49.242;9.060;2023-12-20T08:30:28;7.25;;;6.55;;
55362;SDS011;41244;49.242;9.060;2023-12-20T08:32:54;23.00;;;8.90;;
55362;SDS011;41244;49.242;9.060;2023-12-20T08:35:20;8.52;;;6.70;;
55362;SDS011;41244;49.242;9.060;2023-12-20T08:37:46;8.32;;;6.47;;
55362;SDS011;41244;49.242;9.060;2023-12-20T08:40:12;7.22;;;6.53;;
55362;SDS011;41244;49.242;9.060;2023-12-20T08:42:38;7.53;;;6.65;;
55362;SDS011;41244;49.242;9.060;2023-12-20T08:45:04;9.18;;;6.95;;
55362;SDS011;41244;49.242;9.060;2023-12-20T08:47:30;7.30;;;6.50;;
55362;SDS011;41244;49.242;9.060;2023-12-20T08:49:56;7.63;;;6.38;;
55362;SDS011;41244;49.242;9.060;2023-12-20T08:52:24;8.05;;;6.18;;
55362;SDS011;41244;49.242;9.060;2023-12-20T08:54:50;8.00;;;6.20;;
55362;SDS011;41244;49.242;9.060;2023-12-20T08:57:20;7.80;;;6.30;;
55362;SDS011;41244;49.242;9.060;2023-12-20T08:59:46;7.60;;;5.65;;
55362;SDS011;41244;49.242;9.060;2023-12-20T09:02:13;7.28;;;5.70;;
55362;SDS011;41244;49.242;9.060;2023-12-20T09:04:39;8.05;;;5.28;;
55362;SDS011;41244;49.242;9.060;2023-12-20T09:07:05;7.75;;;6.55;;
55362;SDS011;41244;49.242;9.060;2023-12-20T09:09:30;5.85;;;5.25;;
55362;SDS011;41244;49.242;9.060;2023-12-20T09:11:57;6.18;;;5.60;;
55362;SDS011;41244;49.242;9.060;2023-12-20T09:14:23;6.15;;;4.47;;
55362;SDS011;41244;49.242;9.060;2023-12-20T09:16:49;7.03;;;5.07;;
55362;SDS011;41244;49.242;9.060;2023-12-20T09:19:16;7.25;;;5.30;;
55362;SDS011;41244;49.242;9.060;2023-12-20T09:21:42;7.15;;;4.88;;
55362;SDS011;41244;49.242;9.060;2023-12-20T09:24:08;8.48;;;4.95;;
55362;SDS011;41244;49.242;9.060;2023-12-20T09:26:34;6.43;;;4.55;;
55362;SDS011;41244;49.242;9.060;2023-12-20T09:29:00;6.60;;;4.90;;
55362;SDS011;41244;49.242;9.060;2023-12-20T09:31:26;5.50;;;4.65;;
55362;SDS011;41244;49.242;9.060;2023-12-20T09:33:51;6.25;;;4.45;;
55362;SDS011;41244;49.242;9.060;2023-12-20T09:36:17;7.70;;;5.22;;
55362;SDS011;41244;49.242;9.060;2023-12-20T09:38:43;14.05;;;8.73;;
55362;SDS011;41244;49.242;9.060;2023-12-20T09:41:09;6.22;;;4.15;;
55362;SDS011;41244;49.242;9.060;2023-12-20T09:43:37;7.72;;;4.15;;
55362;SDS011;41244;49.242;9.060;2023-12-20T09:46:04;9.07;;;4.20;;
55362;SDS011;41244;49.242;9.060;2023-12-20T09:48:32;10.52;;;4.47;;
55362;SDS011;41244;49.242;9.060;2023-12-20T09:50:58;8.48;;;4.30;;
55362;SDS011;41244;49.242;9.060;2023-12-20T09:53:24;9.18;;;4.32;;
55362;SDS011;41244;49.242;9.060;2023-12-20T09:55:55;9.25;;;3.92;;
55362;SDS011;41244;49.242;9.060;2023-12-20T09:58:25;6.65;;;3.88;;
55362;SDS011;41244;49.242;9.060;2023-12-20T10:00:51;7.72;;;3.63;;
55362;SDS011;41244;49.242;9.060;2023-12-20T10:03:18;6.38;;;4.22;;
55362;SDS011;41244;49.242;9.060;2023-12-20T10:05:49;11.80;;;3.97;;
55362;SDS011;41244;49.242;9.060;2023-12-20T10:08:20;8.00;;;3.80;;
55362;SDS011;41244;49.242;9.060;2023-12-20T10:10:47;6.47;;;3.97;;
55362;SDS011;41244;49.242;9.060;2023-12-20T10:13:13;6.18;;;3.80;;
55362;SDS011;41244;49.242;9.060;2023-12-20T10:15:39;5.43;;;3.65;;
55362;SDS011;41244;49.242;9.060;2023-12-20T10:18:05;6.50;;;3.83;;
55362;SDS011;41244;49.242;9.060;2023-12-20T10:20:32;8.90;;;4.90;;
55362;SDS011;41244;49.242;9.060;2023-12-20T10:22:58;8.57;;;3.75;;
55362;SDS011;41244;49.242;9.060;2023-12-20T10:25:25;6.05;;;3.58;;
55362;SDS011;41244;49.242;9.060;2023-12-20T10:28:08;7.05;;;3.72;;
55362;SDS011;41244;49.242;9.060;2023-12-20T10:30:39;8.98;;;3.83;;
55362;SDS011;41244;49.242;9.060;2023-12-20T10:33:06;15.18;;;7.00;;
55362;SDS011;41244;49.242;9.060;2023-12-20T10:35:33;12.15;;;5.10;;
55362;SDS011;41244;49.242;9.060;2023-12-20T10:38:01;9.40;;;5.10;;
55362;SDS011;41244;49.242;9.060;2023-12-20T10:40:31;9.98;;;4.93;;
55362;SDS011;41244;49.242;9.060;2023-12-20T10:43:01;10.88;;;5.05;;
55362;SDS011;41244;49.242;9.060;2023-12-20T10:45:28;13.95;;;5.95;;
55362;SDS011;41244;49.242;9.060;2023-12-20T10:47:54;8.02;;;4.97;;
55362;SDS011;41244;49.242;9.060;2023-12-20T10:50:20;9.07;;;4.93;;
55362;SDS011;41244;49.242;9.060;2023-12-20T10:52:46;9.68;;;4.63;;
55362;SDS011;41244;49.242;9.060;2023-12-20T10:55:13;11.02;;;3.70;;
55362;SDS011;41244;49.242;9.060;2023-12-20T10:57:39;7.63;;;3.85;;
55362;SDS011;41244;49.242;9.060;2023-12-20T11:00:06;8.52;;;3.67;;
55362;SDS011;41244;49.242;9.060;2023-12-20T11:02:35;10.07;;;3.75;;
55362;SDS011;41244;49.242;9.060;2023-12-20T11:07:54;7.85;;;3.50;;
55362;SDS011;41244;49.242;9.060;2023-12-20T11:10:30;21.73;;;14.27;;
55362;SDS011;41244;49.242;9.060;2023-12-20T11:13:26;8.55;;;3.45;;
55362;SDS011;41244;49.242;9.060;2023-12-20T11:15:58;6.75;;;3.22;;
55362;SDS011;41244;49.242;9.060;2023-12-20T11:18:30;7.20;;;3.40;;
55362;SDS011;41244;49.242;9.060;2023-12-20T11:21:04;11.52;;;4.30;;
55362;SDS011;41244;49.242;9.060;2023-12-20T11:23:30;9.50;;;3.70;;
55362;SDS011;41244;49.242;9.060;2023-12-20T11:25:59;14.32;;;4.55;;
55362;SDS011;41244;49.242;9.060;2023-12-20T11:28:25;8.77;;;4.05;;
55362;SDS011;41244;49.242;9.060;2023-12-20T11:30:52;10.40;;;3.53;;
55362;SDS011;41244;49.242;9.060;2023-12-20T11:33:23;9.20;;;3.60;;
55362;SDS011;41244;49.242;9.060;2023-12-20T11:35:50;6.25;;;3.10;;
55362;SDS011;41244;49.242;9.060;2023-12-20T11:38:17;8.45;;;3.22;;
55362;SDS011;41244;49.242;9.060;2023-12-20T11:40:45;6.57;;;3.05;;
55362;SDS011;41244;49.242;9.060;2023-12-20T11:43:29;4.80;;;3.25;;
55362;SDS011;41244;49.242;9.060;2023-12-20T11:46:02;10.70;;;3.35;;
55362;SDS011;41244;49.242;9.060;2023-12-20T11:48:34;7.78;;;3.05;;
55362;SDS011;41244;49.242;9.060;2023-12-20T11:51:09;6.72;;;3.60;;
55362;SDS011;41244;49.242;9.060;2023-12-20T11:53:36;11.75;;;3.95;;
55362;SDS011;41244;49.242;9.060;2023-12-20T11:56:02;8.98;;;4.20;;
55362;SDS011;41244;49.242;9.060;2023-12-20T11:58:31;11.48;;;3.60;;
55362;SDS011;41244;49.242;9.060;2023-12-20T12:00:58;7.30;;;3.88;;
55362;SDS011;41244;49.242;9.060;2023-12-20T12:03:24;7.22;;;3.22;;
55362;SDS011;41244;49.242;9.060;2023-12-20T12:05:50;8.02;;;3.42;;
55362;SDS011;41244;49.242;9.060;2023-12-20T12:08:16;10.27;;;4.10;;
55362;SDS011;41244;49.242;9.060;2023-12-20T12:10:43;12.82;;;3.95;;
55362;SDS011;41244;49.242;9.060;2023-12-20T12:13:09;12.38;;;4.25;;
55362;SDS011;41244;49.242;9.060;2023-12-20T12:15:36;5.38;;;3.40;;
55362;SDS011;41244;49.242;9.060;2023-12-20T12:18:02;10.80;;;4.28;;
55362;SDS011;41244;49.242;9.060;2023-12-20T12:20:28;9.98;;;4.18;;
55362;SDS011;41244;49.242;9.060;2023-12-20T12:23:03;9.88;;;3.80;;
55362;SDS011;41244;49.242;9.060;2023-12-20T12:25:31;9.35;;;4.30;;
55362;SDS011;41244;49.242;9.060;2023-12-20T12:27:58;8.90;;;4.20;;
55362;SDS011;41244;49.242;9.060;2023-12-20T12:30:24;7.13;;;4.10;;
55362;SDS011;41244;49.242;9.060;2023-12-20T12:32:53;11.32;;;4.43;;
55362;SDS011;41244;49.242;9.060;2023-12-20T12:35:21;10.35;;;4.90;;
55362;SDS011;41244;49.242;9.060;2023-12-20T12:37:47;8.82;;;4.28;;
55362;SDS011;41244;49.242;9.060;2023-12-20T12:40:13;9.00;;;4.68;;
55362;SDS011;41244;49.242;9.060;2023-12-20T12:42:41;9.23;;;4.15;;
55362;SDS011;41244;49.242;9.060;2023-12-20T12:45:08;8.82;;;4.15;;
55362;SDS011;41244;49.242;9.060;2023-12-20T12:47:36;10.48;;;4.35;;
55362;SDS011;41244;49.242;9.060;2023-12-20T12:50:02;6.57;;;3.88;;
55362;SDS011;41244;49.242;9.060;2023-12-20T12:52:28;5.80;;;3.80;;
55362;SDS011;41244;49.242;9.060;2023-12-20T12:54:55;8.32;;;3.72;;
55362;SDS011;41244;49.242;9.060;2023-12-20T12:57:20;7.82;;;4.13;;
55362;SDS011;41244;49.242;9.060;2023-12-20T12:59:46;9.82;;;3.88;;
55362;SDS011;41244;49.242;9.060;2023-12-20T13:02:12;7.95;;;3.42;;
55362;SDS011;41244;49.242;9.060;2023-12-20T13:04:38;48.30;;;6.32;;
55362;SDS011;41244;49.242;9.060;2023-12-20T13:07:06;6.88;;;3.97;;
55362;SDS011;41244;49.242;9.060;2023-12-20T13:09:32;8.27;;;4.35;;
55362;SDS011;41244;49.242;9.060;2023-12-20T13:11:58;8.80;;;4.40;;
55362;SDS011;41244;49.242;9.060;2023-12-20T13:14:24;8.77;;;4.10;;
55362;SDS011;41244;49.242;9.060;2023-12-20T13:16:50;9.82;;;4.38;;
55362;SDS011;41244;49.242;9.060;2023-12-20T13:19:16;8.90;;;4.32;;
55362;SDS011;41244;49.242;9.060;2023-12-20T13:21:41;7.28;;;4.38;;
55362;SDS011;41244;49.242;9.060;2023-12-20T13:24:07;9.48;;;4.20;;
55362;SDS011;41244;49.242;9.060;2023-12-20T13:26:33;13.15;;;4.60;;
55362;SDS011;41244;49.242;9.060;2023-12-20T13:28:59;12.43;;;4.85;;
55362;SDS011;41244;49.242;9.060;2023-12-20T13:31:24;7.38;;;4.13;;
55362;SDS011;41244;49.242;9.060;2023-12-20T13:33:50;8.20;;;4.03;;
55362;SDS011;41244;49.242;9.060;2023-12-20T13:36:17;9.68;;;3.97;;
55362;SDS011;41244;49.242;9.060;2023-12-20T13:38:43;8.95;;;3.88;;
55362;SDS011;41244;49.242;9.060;2023-12-20T13:41:09;10.45;;;4.93;;
55362;SDS011;41244;49.242;9.060;2023-12-20T13:43:34;10.50;;;4.40;;
55362;SDS011;41244;49.242;9.060;2023-12-20T13:46:00;16.40;;;4.72;;
55362;SDS011;41244;49.242;9.060;2023-12-20T13:48:26;10.80;;;5.70;;
55362;SDS011;41244;49.242;9.060;2023-12-20T13:50:52;7.72;;;3.67;;
55362;SDS011;41244;49.242;9.060;2023-12-20T13:53:19;9.77;;;4.22;;
55362;SDS011;41244;49.242;9.060;2023-12-20T13:55:45;9.98;;;4.30;;
55362;SDS011;41244;49.242;9.060;2023-12-20T13:58:11;10.05;;;4.38;;
55362;SDS011;41244;49.242;9.060;2023-12-20T14:00:37;13.23;;;4.47;;
55362;SDS011;41244;49.242;9.060;2023-12-20T14:03:03;10.93;;;4.40;;
55362;SDS011;41244;49.242;9.060;2023-12-20T14:05:29;12.57;;;4.25;;
55362;SDS011;41244;49.242;9.060;2023-12-20T14:07:56;13.27;;;4.55;;
55362;SDS011;41244;49.242;9.060;2023-12-20T14:10:25;11.23;;;4.10;;
55362;SDS011;41244;49.242;9.060;2023-12-20T14:12:51;10.70;;;4.20;;
55362;SDS011;41244;49.242;9.060;2023-12-20T14:15:18;19.13;;;4.78;;
55362;SDS011;41244;49.242;9.060;2023-12-20T14:17:44;9.98;;;4.63;;
55362;SDS011;41244;49.242;9.060;2023-12-20T14:20:10;12.55;;;4.70;;
55362;SDS011;41244;49.242;9.060;2023-12-20T14:22:39;9.55;;;4.32;;
55362;SDS011;41244;49.242;9.060;2023-12-20T14:25:10;10.07;;;4.10;;
55362;SDS011;41244;49.242;9.060;2023-12-20T14:27:37;13.85;;;5.07;;
55362;SDS011;41244;49.242;9.060;2023-12-20T14:30:04;10.02;;;4.28;;
55362;SDS011;41244;49.242;9.060;2023-12-20T14:32:31;9.60;;;4.50;;
55362;SDS011;41244;49.242;9.060;2023-12-20T14:34:59;9.45;;;4.28;;
55362;SDS011;41244;49.242;9.060;2023-12-20T14:37:25;10.07;;;4.97;;
55362;SDS011;41244;49.242;9.060;2023-12-20T14:39:51;14.18;;;4.82;;
55362;SDS011;41244;49.242;9.060;2023-12-20T14:42:17;15.85;;;8.25;;